createdAt,value
2023-04-18T08:39:36.048Z,25.00
2023-04-18T08:40:35.957Z,25.00
2023-04-18T08:41:36.053Z,25.00
2023-04-18T12:24:41.941Z,25.00
2023-04-18T12:25:41.966Z,25.00
2023-04-18T12:26:42.061Z,25.00
2023-04-18T12:27:42.018Z,25.00
2023-04-18T12:28:42.088Z,25.00
2023-04-18T12:29:42.146Z,0.00
2023-04-18T12:30:42.145Z,0.00
2023-04-18T12:31:42.191Z,0.00
2023-04-18T12:32:42.114Z,0.00
2023-04-18T12:33:42.096Z,0.00
2023-04-18T12:34:42.116Z,0.00
2023-04-18T12:35:42.066Z,0.00
2023-04-18T12:36:42.081Z,0.00
2023-04-18T12:37:42.094Z,15.96
2023-04-18T12:38:42.093Z,31.57
2023-04-18T12:39:42.054Z,29.33
2023-04-18T12:40:42.024Z,25.00
2023-04-18T12:41:42.061Z,27.93
2023-04-18T12:42:42.114Z,26.18
2023-04-18T12:43:42.180Z,25.00
2023-04-18T12:44:42.181Z,25.00
2023-04-18T12:45:42.256Z,25.27
2023-04-18T12:46:42.314Z,24.18
2023-04-18T12:47:42.667Z,28.20
2023-04-18T12:48:42.362Z,27.15
2023-04-18T12:49:42.436Z,25.82
2023-04-18T12:50:42.454Z,26.32
2023-04-18T12:51:42.432Z,26.43
2023-04-18T12:52:42.568Z,27.36
2023-04-18T12:53:42.544Z,26.55
2023-04-18T12:54:42.534Z,25.53
2023-04-18T12:55:42.628Z,25.00
2023-04-18T12:56:42.642Z,26.85
2023-04-18T12:57:42.691Z,27.68
2023-04-18T12:58:42.690Z,28.73
2023-04-18T12:59:42.741Z,26.45
2023-04-18T13:00:42.805Z,27.80
2023-04-18T13:01:49.925Z,27.65
2023-04-18T13:02:43.017Z,27.65
2023-04-18T13:03:42.961Z,23.88
2023-04-18T13:04:43.051Z,21.14
2023-04-18T13:05:42.794Z,21.81
2023-04-18T13:06:42.823Z,17.53
2023-04-18T13:07:42.768Z,27.98
2023-04-18T13:08:42.772Z,26.59
2023-04-18T13:09:42.753Z,27.14
2023-04-18T13:10:42.788Z,27.42
2023-04-18T13:11:42.757Z,27.11
2023-04-18T13:12:42.733Z,28.76
2023-04-18T13:13:42.750Z,29.08
2023-04-18T13:14:42.807Z,26.90
2023-04-18T13:15:42.725Z,27.53
2023-04-18T13:16:44.028Z,26.43
2023-04-18T13:17:42.715Z,29.19
2023-04-18T13:18:42.728Z,26.74
2023-04-18T13:19:42.721Z,28.76
2023-04-18T13:20:42.701Z,30.66
2023-04-18T13:21:42.702Z,27.65
2023-04-18T13:22:42.673Z,30.63
2023-04-18T13:23:42.646Z,27.00
2023-04-18T13:24:42.695Z,30.21
2023-04-18T13:25:42.658Z,28.20
2023-04-18T13:26:42.663Z,28.73
2023-04-18T13:27:42.638Z,28.94
2023-04-18T13:28:42.622Z,28.59
2023-04-18T13:29:42.665Z,27.13
2023-04-18T13:30:42.630Z,28.37
2023-04-18T13:31:42.601Z,31.27
2023-04-18T13:32:43.101Z,32.02
2023-04-18T13:33:42.615Z,27.87
2023-04-18T13:34:42.590Z,28.84
2023-04-18T13:35:42.593Z,29.07
2023-04-18T13:36:42.550Z,27.22
2023-04-18T13:37:42.612Z,27.30
2023-04-18T13:38:42.591Z,28.34
2023-04-18T13:39:42.559Z,29.96
2023-04-18T13:40:42.601Z,25.56
2023-04-18T13:41:42.614Z,28.45
2023-04-18T13:42:42.588Z,29.81
2023-04-18T13:43:42.646Z,27.95
2023-04-18T13:44:42.704Z,29.21
2023-04-18T13:45:42.706Z,27.90
2023-04-18T13:46:42.693Z,31.36
2023-04-18T13:47:42.771Z,28.72
2023-04-18T13:48:42.762Z,27.19
2023-04-18T13:49:42.797Z,27.76
2023-04-18T13:50:42.800Z,28.59
2023-04-18T13:51:42.842Z,28.59
2023-04-18T13:52:42.874Z,27.46
2023-04-18T13:53:42.905Z,30.10
2023-04-18T13:54:42.902Z,28.70
2023-04-18T13:55:42.926Z,29.16
2023-04-18T13:56:42.953Z,30.36
2023-04-18T13:57:43.000Z,30.39
2023-04-18T13:58:42.991Z,30.57
2023-04-18T13:59:43.019Z,30.72
2023-04-18T14:00:43.092Z,28.67
2023-04-18T14:01:43.153Z,32.26
2023-04-18T14:02:43.237Z,29.41
2023-04-18T14:03:43.886Z,30.84
2023-04-18T14:04:43.254Z,28.27
2023-04-18T14:05:43.163Z,30.33
2023-04-18T14:06:43.179Z,30.00
2023-04-18T14:07:43.220Z,31.90
2023-04-18T14:08:43.240Z,31.53
2023-04-18T14:09:43.282Z,32.55
2023-04-18T14:10:43.290Z,31.82
2023-04-18T14:11:43.318Z,30.78
2023-04-18T14:12:43.320Z,31.91
2023-04-18T14:13:43.373Z,32.74
2023-04-18T14:14:43.398Z,30.96
2023-04-18T14:15:43.413Z,31.99
2023-04-18T14:16:43.588Z,32.79
2023-04-18T14:17:45.480Z,32.70
2023-04-18T14:18:43.558Z,29.45
2023-04-18T14:19:43.550Z,32.39
2023-04-18T14:20:43.602Z,31.40
2023-04-18T14:21:43.662Z,36.96
2023-04-18T14:22:43.684Z,32.82
2023-04-18T14:23:43.706Z,31.89
2023-04-18T14:24:43.751Z,32.53
2023-04-18T14:25:43.790Z,33.48
2023-04-18T14:26:43.836Z,34.26
2023-04-18T14:27:43.873Z,34.86
2023-04-18T14:28:43.944Z,35.90
2023-04-18T14:29:43.985Z,33.49
2023-04-18T14:30:44.058Z,33.71
2023-04-18T14:31:44.112Z,35.78
2023-04-18T14:32:44.187Z,35.97
2023-04-18T14:33:44.207Z,35.00
2023-04-18T14:34:44.207Z,39.07
2023-04-18T14:35:44.295Z,39.07
2023-04-18T14:36:44.327Z,39.89
2023-04-18T14:37:44.366Z,40.34
2023-04-18T14:38:44.416Z,36.91
2023-04-18T14:39:44.462Z,37.78
2023-04-18T14:40:44.515Z,39.70
2023-04-18T14:41:44.588Z,40.91
2023-04-18T14:42:44.604Z,39.54
2023-04-18T14:43:44.690Z,39.12
2023-04-18T14:44:44.724Z,36.86
2023-04-18T14:45:44.847Z,40.49
2023-04-18T14:46:44.892Z,38.12
2023-04-18T14:47:44.977Z,42.60
2023-04-18T14:48:44.957Z,41.36
2023-04-18T14:49:45.035Z,40.72
2023-04-18T14:50:45.076Z,42.51
2023-04-18T14:51:45.175Z,41.45
2023-04-18T14:52:45.236Z,43.03
2023-04-18T14:53:45.238Z,39.50
2023-04-18T14:54:45.240Z,44.28
2023-04-18T14:55:45.277Z,38.40
2023-04-18T14:56:45.347Z,40.27
2023-04-18T14:57:45.433Z,37.62
2023-04-18T14:58:45.466Z,40.44
2023-04-18T14:59:45.514Z,43.31
2023-04-18T15:00:45.559Z,41.98
2023-04-18T15:01:45.634Z,42.51
2023-04-18T15:02:45.750Z,43.83
2023-04-18T15:03:45.853Z,41.10
2023-04-18T15:04:45.825Z,43.35
2023-04-18T15:05:45.772Z,45.07
2023-04-18T15:06:45.761Z,46.60
2023-04-18T15:07:45.788Z,42.38
2023-04-18T15:08:45.807Z,45.32
2023-04-18T15:09:45.871Z,45.01
2023-04-18T15:10:45.937Z,41.18
2023-04-18T15:11:46.002Z,46.08
2023-04-18T15:12:46.087Z,44.85
2023-04-18T15:13:46.130Z,41.85
2023-04-18T15:14:46.151Z,44.94
2023-04-18T15:15:46.232Z,44.64
2023-04-18T15:16:46.330Z,49.70
2023-04-18T15:17:46.436Z,47.30
2023-04-18T15:18:46.436Z,47.78
2023-04-18T15:19:46.469Z,49.91
2023-04-18T15:20:46.552Z,47.43
2023-04-18T15:21:46.618Z,47.91
2023-04-18T15:22:46.669Z,48.67
2023-04-18T15:23:46.699Z,45.80
2023-04-18T15:24:46.780Z,45.62
2023-04-18T15:25:46.846Z,46.91
2023-04-18T15:26:46.903Z,47.74
2023-04-18T15:27:47.008Z,48.00
2023-04-18T15:28:46.967Z,53.07
2023-04-18T15:29:46.996Z,50.84
2023-04-18T15:30:47.043Z,51.97
2023-04-18T15:31:47.093Z,52.45
2023-04-18T15:32:47.062Z,53.01
2023-04-18T15:33:47.061Z,53.61
2023-04-18T15:34:47.061Z,50.35
2023-04-18T15:35:47.096Z,50.75
2023-04-18T15:36:47.166Z,50.69
2023-04-18T15:37:47.188Z,50.54
2023-04-18T15:38:47.144Z,49.69
2023-04-18T15:39:47.125Z,50.26
2023-04-18T15:40:47.167Z,51.94
2023-04-18T15:41:47.169Z,51.01
2023-04-18T15:42:47.217Z,47.57
2023-04-18T15:43:47.189Z,46.73
2023-04-18T15:44:47.236Z,46.61
2023-04-18T15:45:47.303Z,49.47
2023-04-18T15:46:47.254Z,47.15
2023-04-18T15:47:47.314Z,45.90
2023-04-18T15:48:47.325Z,51.12
2023-04-18T15:49:47.351Z,49.60
2023-04-18T15:50:47.390Z,47.26
2023-04-18T15:51:47.394Z,47.35
2023-04-18T15:52:47.438Z,47.06
2023-04-18T15:53:47.388Z,49.63
2023-04-18T15:54:47.420Z,49.85
2023-04-18T15:55:47.421Z,47.35
2023-04-18T15:56:47.420Z,49.59
2023-04-18T15:57:47.385Z,46.78
2023-04-18T15:58:47.457Z,50.63
2023-04-18T15:59:47.412Z,48.39
2023-04-18T16:00:47.405Z,48.13
2023-04-18T16:01:47.514Z,50.97
2023-04-18T16:02:47.483Z,49.44
2023-04-18T16:03:47.518Z,51.31
2023-04-18T16:04:47.485Z,52.97
2023-04-18T16:05:47.430Z,48.06
2023-04-18T16:06:47.435Z,49.80
2023-04-18T16:07:47.457Z,50.69
2023-04-18T16:08:47.411Z,48.74
2023-04-18T16:09:47.406Z,47.69
2023-04-18T16:10:47.408Z,52.62
2023-04-18T16:11:47.438Z,53.25
2023-04-18T16:12:47.440Z,46.63
2023-04-18T16:13:47.446Z,43.94
2023-04-18T16:14:47.455Z,44.24
2023-04-18T16:15:47.521Z,43.49
2023-04-18T16:16:47.567Z,44.66
2023-04-18T16:17:47.540Z,42.42
2023-04-18T16:18:47.578Z,43.76
2023-04-18T16:19:47.626Z,42.83
2023-04-18T16:20:47.582Z,39.70
2023-04-18T16:21:47.658Z,37.64
2023-04-18T16:22:47.695Z,38.08
2023-04-18T16:23:47.709Z,39.47
2023-04-18T16:24:47.784Z,36.62
2023-04-18T16:25:47.833Z,40.53
2023-04-18T16:26:47.856Z,37.51
2023-04-18T16:27:47.904Z,36.56
2023-04-18T16:28:47.991Z,39.39
2023-04-18T16:29:48.075Z,36.86
2023-04-18T16:30:48.123Z,32.41
2023-04-18T16:31:48.302Z,37.00
2023-04-18T16:32:48.298Z,36.21
2023-04-18T16:33:48.307Z,33.66
2023-04-18T16:34:48.353Z,33.51
2023-04-18T16:35:48.421Z,34.33
2023-04-18T16:36:50.779Z,27.35
2023-04-18T16:37:48.486Z,30.56
2023-04-18T16:38:48.440Z,34.08
2023-04-18T16:39:48.462Z,33.90
2023-04-18T16:40:48.456Z,35.76
2023-04-18T16:41:48.396Z,32.56
2023-04-18T16:42:48.417Z,31.80
2023-04-18T16:43:48.426Z,33.95
2023-04-18T16:44:48.428Z,32.72
2023-04-18T16:45:48.381Z,30.84
2023-04-18T16:46:48.447Z,29.31
2023-04-18T16:47:48.431Z,31.88
2023-04-18T16:48:49.038Z,32.47
2023-04-18T16:49:48.364Z,33.30
2023-04-18T16:50:48.369Z,28.75
2023-04-18T16:51:48.378Z,31.17
2023-04-18T16:52:48.353Z,29.55
2023-04-18T16:53:48.329Z,33.58
2023-04-18T16:54:49.380Z,30.39
2023-04-18T16:55:48.317Z,29.49
2023-04-18T16:56:48.373Z,31.90
2023-04-18T16:57:48.430Z,27.80
2023-04-18T16:58:48.434Z,29.82
2023-04-18T16:59:48.492Z,29.14
2023-04-18T17:00:48.550Z,28.75
2023-04-18T17:01:48.650Z,28.42
2023-04-18T17:02:48.691Z,30.08
2023-04-18T17:03:48.727Z,30.79
2023-04-18T17:04:48.746Z,29.25
2023-04-18T17:05:48.749Z,28.66
2023-04-18T17:06:49.729Z,25.30
2023-04-18T17:07:48.809Z,28.25
2023-04-18T17:08:48.815Z,25.00
2023-04-18T17:09:48.819Z,27.96
2023-04-18T17:10:48.756Z,27.40
2023-04-18T17:11:48.774Z,25.79
2023-04-18T17:12:48.792Z,27.58
2023-04-18T17:13:48.748Z,28.11
2023-04-18T17:14:48.741Z,29.61
2023-04-18T17:15:48.751Z,28.82
2023-04-18T17:16:50.657Z,29.72
2023-04-18T17:17:48.728Z,29.74
2023-04-18T17:18:48.715Z,26.52
2023-04-18T17:19:48.751Z,27.99
2023-04-18T17:20:48.745Z,24.63
2023-04-18T17:21:48.690Z,24.46
2023-04-18T17:22:48.703Z,27.90
2023-04-18T17:23:48.709Z,25.00
2023-04-18T17:24:48.718Z,26.32
2023-04-18T17:25:48.660Z,27.69
2023-04-18T17:26:48.674Z,26.02
2023-04-18T17:27:48.691Z,25.72
2023-04-18T17:28:48.670Z,30.33
2023-04-18T17:29:48.658Z,28.81
2023-04-18T17:30:48.652Z,31.66
2023-04-18T17:31:48.677Z,28.26
2023-04-18T17:32:48.655Z,28.31
2023-04-18T17:33:48.607Z,26.11
2023-04-18T17:34:48.631Z,27.01
2023-04-18T17:35:48.638Z,28.95
2023-04-18T17:36:48.587Z,32.72
2023-04-18T17:37:48.591Z,28.55
2023-04-18T17:38:48.602Z,25.00
2023-04-18T17:39:48.536Z,28.51
2023-04-18T17:40:48.570Z,33.67
2023-04-18T17:41:48.542Z,32.45
2023-04-18T17:42:48.533Z,30.58
2023-04-18T17:43:48.559Z,31.66
2023-04-18T17:44:48.530Z,35.49
2023-04-18T17:45:48.585Z,34.16
2023-04-18T17:46:49.961Z,34.14
2023-04-18T17:47:48.579Z,29.95
2023-04-18T17:48:48.523Z,32.31
2023-04-18T17:49:48.542Z,31.61
2023-04-18T17:50:48.497Z,32.74
2023-04-18T17:51:48.486Z,33.65
2023-04-18T17:52:48.491Z,27.19
2023-04-18T17:53:48.504Z,30.46
2023-04-18T17:54:48.468Z,27.95
2023-04-18T17:55:48.438Z,30.47
2023-04-18T17:56:48.479Z,24.50
2023-04-18T17:57:48.480Z,35.90
2023-04-18T17:58:48.449Z,29.82
2023-04-18T17:59:48.460Z,25.00
2023-04-18T18:00:48.399Z,26.09
2023-04-18T18:01:48.488Z,34.65
2023-04-18T18:02:48.510Z,26.31
2023-04-18T18:03:48.718Z,30.01
2023-04-18T18:04:48.433Z,30.09
2023-04-18T18:05:48.381Z,30.73
2023-04-18T18:06:48.411Z,29.88
2023-04-18T18:07:49.630Z,31.54
2023-04-18T18:08:48.624Z,26.26
2023-04-18T18:09:48.628Z,27.27
2023-04-18T18:10:48.694Z,25.86
2023-04-18T18:11:48.737Z,26.66
2023-04-18T18:12:48.762Z,25.99
2023-04-18T18:13:48.817Z,26.88
2023-04-18T18:14:48.871Z,26.43
2023-04-18T18:15:48.924Z,26.56
2023-04-18T18:16:49.075Z,29.24
2023-04-18T18:17:49.071Z,28.41
2023-04-18T18:18:49.090Z,25.44
2023-04-18T18:19:49.132Z,27.00
2023-04-18T18:20:49.182Z,27.92
2023-04-18T18:21:49.168Z,42.02
2023-04-18T18:22:49.251Z,43.31
2023-04-18T18:23:49.246Z,43.23
2023-04-18T18:24:49.238Z,43.16
2023-04-18T18:25:49.196Z,40.19
2023-04-18T18:26:51.473Z,42.51
2023-04-18T18:27:49.356Z,37.31
2023-04-18T18:28:49.298Z,41.40
2023-04-18T18:29:49.322Z,32.96
2023-04-18T18:30:49.393Z,35.76
2023-04-18T18:31:49.361Z,41.53
2023-04-18T18:32:49.362Z,41.16
2023-04-18T18:33:49.333Z,42.39
2023-04-18T18:34:49.376Z,42.92
2023-04-18T18:35:49.377Z,28.48
2023-04-18T18:36:49.353Z,26.27
2023-04-18T18:37:49.393Z,27.56
2023-04-18T18:38:49.439Z,28.48
2023-04-18T18:39:49.510Z,30.86
2023-04-18T18:40:49.562Z,31.14
2023-04-18T18:41:49.684Z,26.14
2023-04-18T18:42:49.663Z,27.09
2023-04-18T18:43:49.740Z,27.75
2023-04-18T18:44:56.849Z,26.30
2023-04-18T18:45:49.779Z,26.58
2023-04-18T18:46:49.816Z,26.36
2023-04-18T18:47:49.792Z,20.93
2023-04-18T18:48:49.737Z,24.46
2023-04-18T18:49:49.737Z,24.26
2023-04-18T18:50:49.725Z,27.79
2023-04-18T18:51:49.716Z,31.47
2023-04-18T18:52:49.687Z,28.45
2023-04-18T18:53:49.697Z,30.26
2023-04-18T18:54:49.687Z,25.42
2023-04-18T18:55:49.701Z,27.43
2023-04-18T18:56:49.672Z,27.19
2023-04-18T18:57:49.674Z,27.75
2023-04-18T18:58:49.670Z,26.23
2023-04-18T18:59:49.653Z,27.72
2023-04-18T19:00:49.660Z,26.84
2023-04-18T19:01:49.730Z,27.49
2023-04-18T19:02:49.709Z,29.47
2023-04-18T19:03:49.775Z,30.43
2023-04-18T19:04:49.740Z,30.57
2023-04-18T19:05:49.631Z,33.68
2023-04-18T19:06:49.587Z,32.64
2023-04-18T19:07:49.605Z,31.22
2023-04-18T19:08:49.719Z,29.66
2023-04-18T19:09:49.710Z,26.39
2023-04-18T19:10:49.780Z,27.39
2023-04-18T19:11:49.835Z,26.14
2023-04-18T19:12:49.903Z,26.74
2023-04-18T19:13:49.949Z,28.38
2023-04-18T19:14:50.016Z,39.35
2023-04-18T19:15:50.067Z,39.66
2023-04-18T19:16:50.129Z,38.96
2023-04-18T19:17:50.246Z,35.47
2023-04-18T19:18:50.202Z,40.11
2023-04-18T19:19:50.241Z,38.61
2023-04-18T19:20:50.319Z,35.05
2023-04-18T19:21:50.262Z,32.32
2023-04-18T19:22:50.259Z,32.24
2023-04-18T19:23:50.291Z,32.38
2023-04-18T19:24:50.282Z,30.12
2023-04-18T19:25:50.305Z,33.65
2023-04-18T19:26:50.288Z,33.69
2023-04-18T19:27:50.297Z,32.10
2023-04-18T19:28:50.308Z,28.28
2023-04-18T19:29:50.314Z,29.46
2023-04-18T19:30:50.320Z,29.86
2023-04-18T19:31:50.376Z,31.33
2023-04-18T19:32:50.401Z,29.56
2023-04-18T19:33:50.379Z,26.63
2023-04-18T19:34:50.387Z,27.00
2023-04-18T19:35:50.418Z,26.02
2023-04-18T19:36:50.441Z,26.91
2023-04-18T19:37:50.436Z,29.52
2023-04-18T19:38:50.482Z,29.87
2023-04-18T19:39:50.506Z,29.03
2023-04-18T19:40:50.519Z,30.97
2023-04-18T19:41:50.535Z,29.80
2023-04-18T19:42:50.619Z,29.40
2023-04-18T19:43:50.582Z,27.61
2023-04-18T19:44:50.625Z,29.93
2023-04-18T19:45:50.948Z,27.23
2023-04-18T19:46:50.661Z,29.54
2023-04-18T19:47:50.831Z,30.60
2023-04-18T19:48:50.714Z,30.57
2023-04-18T19:49:50.729Z,30.81
2023-04-18T19:50:50.781Z,28.85
2023-04-18T19:51:50.776Z,31.34
2023-04-18T19:52:50.784Z,32.16
2023-04-18T19:53:50.810Z,32.46
2023-04-18T19:54:50.867Z,31.66
2023-04-18T19:55:50.914Z,36.71
2023-04-18T19:56:50.916Z,36.22
2023-04-18T19:57:50.916Z,35.90
2023-04-18T19:58:50.986Z,36.38
2023-04-18T19:59:51.018Z,38.64
2023-04-18T20:00:51.031Z,40.66
2023-04-18T20:01:51.048Z,36.54
2023-04-18T20:02:51.164Z,38.34
2023-04-18T20:03:51.230Z,41.31
2023-04-18T20:04:51.279Z,41.09
2023-04-18T20:05:51.118Z,40.53
2023-04-18T20:06:51.143Z,38.63
2023-04-18T20:07:51.752Z,42.84
2023-04-18T20:08:51.222Z,40.22
2023-04-18T20:09:51.239Z,40.09
2023-04-18T20:10:51.265Z,42.66
2023-04-18T20:11:51.259Z,42.72
2023-04-18T20:12:51.251Z,42.74
2023-04-18T20:13:51.294Z,40.93
2023-04-18T20:14:51.368Z,42.25
2023-04-18T20:15:51.361Z,45.07
2023-04-18T20:16:51.410Z,45.47
2023-04-18T20:17:51.420Z,47.81
2023-04-18T20:18:52.998Z,47.63
2023-04-18T20:19:51.435Z,46.31
2023-04-18T20:20:51.400Z,43.73
2023-04-18T20:21:51.388Z,45.19
2023-04-18T20:22:51.413Z,48.73
2023-04-18T20:23:51.374Z,44.81
2023-04-18T20:24:51.375Z,43.77
2023-04-18T20:25:51.360Z,47.64
2023-04-18T20:26:51.371Z,47.89
2023-04-18T20:27:51.390Z,45.72
2023-04-18T20:28:51.333Z,47.08
2023-04-18T20:29:51.344Z,45.08
2023-04-18T20:30:51.395Z,45.67
2023-04-18T20:31:51.322Z,50.57
2023-04-18T20:32:51.365Z,48.51
2023-04-18T20:33:51.311Z,47.28
2023-04-18T20:34:51.317Z,45.64
2023-04-18T20:35:51.281Z,46.07
2023-04-18T20:36:51.293Z,50.28
2023-04-18T20:37:51.259Z,48.94
2023-04-18T20:38:51.308Z,48.01
2023-04-18T20:39:51.282Z,50.02
2023-04-18T20:40:51.285Z,48.00
2023-04-18T20:41:51.389Z,48.94
2023-04-18T20:42:51.229Z,49.38
2023-04-18T20:43:51.241Z,48.75
2023-04-18T20:44:51.206Z,48.12
2023-04-18T20:45:51.321Z,48.51
2023-04-18T20:46:51.200Z,48.77
2023-04-18T20:47:51.202Z,49.03
2023-04-18T20:48:51.205Z,47.91
2023-04-18T20:49:51.185Z,51.54
2023-04-18T20:50:51.544Z,50.15
2023-04-18T20:51:51.169Z,51.24
2023-04-18T20:52:51.164Z,48.22
2023-04-18T20:53:51.183Z,49.36
2023-04-18T20:54:51.137Z,52.81
2023-04-18T20:55:51.167Z,50.36
2023-04-18T20:56:51.236Z,51.33
2023-04-18T20:57:51.164Z,49.36
2023-04-18T20:58:51.145Z,48.48
2023-04-18T20:59:51.138Z,48.81
2023-04-18T21:00:51.122Z,50.33
2023-04-18T21:01:51.153Z,50.92
2023-04-18T21:02:51.210Z,49.22
2023-04-18T21:03:51.320Z,51.14
2023-04-18T21:04:51.202Z,50.62
2023-04-18T21:05:51.095Z,52.89
2023-04-18T21:06:51.057Z,50.83
2023-04-18T21:07:51.069Z,51.07
2023-04-18T21:08:51.136Z,49.99
2023-04-18T21:09:51.087Z,49.60
2023-04-18T21:10:51.103Z,51.45
2023-04-18T21:11:51.036Z,51.42
2023-04-18T21:12:51.047Z,50.79
2023-04-18T21:13:51.058Z,48.08
2023-04-18T21:14:51.048Z,49.67
2023-04-18T21:15:51.099Z,50.45
2023-04-18T21:16:51.026Z,49.61
2023-04-18T21:17:51.078Z,48.45
2023-04-18T21:18:51.011Z,49.98
2023-04-18T21:19:50.991Z,51.15
2023-04-18T21:20:50.991Z,51.71
2023-04-18T21:21:50.998Z,49.57
2023-04-18T21:22:50.976Z,51.51
2023-04-18T21:23:51.030Z,50.37
2023-04-18T21:24:50.964Z,48.70
2023-04-18T21:25:50.971Z,49.21
2023-04-18T21:26:50.975Z,50.06
2023-04-18T21:27:51.031Z,52.21
2023-04-18T21:28:50.986Z,51.69
2023-04-18T21:29:51.017Z,48.38
2023-04-18T21:30:51.044Z,50.69
2023-04-18T21:31:51.133Z,51.12
2023-04-18T21:32:51.099Z,52.19
2023-04-18T21:33:51.116Z,48.27
2023-04-18T21:34:51.166Z,52.13
2023-04-18T21:35:51.160Z,51.36
2023-04-18T21:36:51.204Z,49.45
2023-04-18T21:37:51.249Z,48.00
2023-04-18T21:38:51.246Z,49.26
2023-04-18T21:39:51.267Z,48.96
2023-04-18T21:40:51.286Z,49.68
2023-04-18T21:41:51.372Z,50.03
2023-04-18T21:42:51.369Z,50.39
2023-04-18T21:43:51.372Z,49.45
2023-04-18T21:44:51.409Z,49.37
2023-04-18T21:45:51.548Z,50.04
2023-04-18T21:46:51.449Z,47.58
2023-04-18T21:47:51.511Z,47.99
2023-04-18T21:48:51.509Z,50.76
2023-04-18T21:49:51.552Z,52.06
2023-04-18T21:50:51.613Z,50.39
2023-04-18T21:51:51.593Z,50.37
2023-04-18T21:52:51.636Z,51.20
2023-04-18T21:53:51.642Z,51.79
2023-04-18T21:54:51.708Z,49.33
2023-04-18T21:55:51.691Z,50.74
2023-04-18T21:56:51.765Z,52.96
2023-04-18T21:57:51.738Z,52.59
2023-04-18T21:58:51.784Z,49.25
2023-04-18T21:59:51.782Z,48.66
2023-04-18T22:00:51.840Z,50.45
2023-04-18T22:01:51.860Z,52.30
2023-04-18T22:02:51.985Z,49.36
2023-04-18T22:03:52.153Z,51.03
2023-04-18T22:04:51.922Z,49.89
2023-04-18T22:05:51.984Z,51.65
2023-04-18T22:06:51.998Z,50.14
2023-04-18T22:07:58.028Z,51.33
2023-04-18T22:08:53.009Z,51.40
2023-04-18T22:09:52.034Z,51.74
2023-04-18T22:10:52.000Z,48.15
2023-04-18T22:11:52.020Z,48.29
2023-04-18T22:12:52.038Z,48.38
2023-04-18T22:13:51.997Z,49.25
2023-04-18T22:14:51.983Z,51.57
2023-04-18T22:15:51.974Z,49.71
2023-04-18T22:16:52.005Z,50.53
2023-04-18T22:17:51.999Z,49.82
2023-04-18T22:18:51.988Z,52.21
2023-04-18T22:19:51.955Z,50.10
2023-04-18T22:20:51.942Z,51.59
2023-04-18T22:21:51.938Z,51.03
2023-04-18T22:22:51.907Z,50.87
2023-04-18T22:23:51.952Z,50.30
2023-04-18T22:24:51.977Z,50.59
2023-04-18T22:25:52.010Z,53.17
2023-04-18T22:26:52.010Z,52.34
2023-04-18T22:27:52.013Z,50.61
2023-04-18T22:28:52.105Z,52.33
2023-04-18T22:29:52.070Z,49.62
2023-04-18T22:30:52.169Z,50.13
2023-04-18T22:31:52.180Z,52.10
2023-04-18T22:32:52.252Z,50.14
2023-04-18T22:33:52.235Z,48.98
2023-04-18T22:34:52.231Z,50.48
2023-04-18T22:35:52.244Z,50.70
2023-04-18T22:36:52.275Z,52.23
2023-04-18T22:37:52.320Z,51.14
2023-04-18T22:38:52.370Z,51.10
2023-04-18T22:39:52.370Z,52.43
2023-04-18T22:40:52.402Z,51.18
2023-04-18T22:41:52.429Z,52.57
2023-04-18T22:42:52.463Z,53.38
2023-04-18T22:43:52.510Z,51.90
2023-04-18T22:44:52.530Z,53.36
2023-04-18T22:45:52.582Z,50.78
2023-04-18T22:46:52.555Z,52.31
2023-04-18T22:47:52.628Z,50.11
2023-04-18T22:48:52.636Z,52.76
2023-04-18T22:49:52.657Z,53.06
2023-04-18T22:50:52.655Z,52.40
2023-04-18T22:51:52.678Z,54.84
2023-04-18T22:52:52.730Z,49.18
2023-04-18T22:53:52.738Z,52.88
2023-04-18T22:54:52.802Z,53.75
2023-04-18T22:55:52.825Z,52.32
2023-04-18T22:56:52.855Z,52.43
2023-04-18T22:57:52.881Z,53.30
2023-04-18T22:58:52.928Z,52.51
2023-04-18T22:59:52.917Z,54.90
2023-04-18T23:00:52.973Z,50.82
2023-04-18T23:01:53.004Z,50.94
2023-04-18T23:02:53.089Z,52.12
2023-04-18T23:03:53.267Z,50.04
2023-04-18T23:04:53.182Z,53.44
2023-04-18T23:05:53.101Z,53.76
2023-04-18T23:06:53.185Z,52.76
2023-04-18T23:07:53.202Z,53.50
2023-04-18T23:08:53.235Z,51.53
2023-04-18T23:09:53.284Z,53.68
2023-04-18T23:10:53.330Z,54.09
2023-04-18T23:11:53.291Z,51.41
2023-04-18T23:12:53.325Z,51.94
2023-04-18T23:13:53.395Z,55.12
2023-04-18T23:14:53.389Z,53.83
2023-04-18T23:15:53.449Z,54.10
2023-04-18T23:16:53.468Z,52.37
2023-04-18T23:17:53.519Z,52.18
2023-04-18T23:18:53.574Z,52.26
2023-04-18T23:19:53.551Z,54.72
2023-04-18T23:20:53.600Z,54.64
2023-04-18T23:21:53.605Z,54.67
2023-04-18T23:22:53.629Z,52.99
2023-04-18T23:23:53.712Z,52.39
2023-04-18T23:24:53.693Z,53.27
2023-04-18T23:25:53.755Z,52.99
2023-04-18T23:26:53.769Z,52.73
2023-04-18T23:27:53.758Z,50.68
2023-04-18T23:28:53.879Z,54.30
2023-04-18T23:29:53.875Z,52.15
2023-04-18T23:30:53.914Z,55.14
2023-04-18T23:31:53.968Z,53.66
2023-04-18T23:32:54.021Z,54.50
2023-04-18T23:33:54.008Z,54.49
2023-04-18T23:34:53.993Z,54.97
2023-04-18T23:35:54.103Z,53.54
2023-04-18T23:36:54.119Z,53.22
2023-04-18T23:37:54.187Z,53.89
2023-04-18T23:38:54.226Z,55.81
2023-04-18T23:39:54.250Z,54.59
2023-04-18T23:40:54.292Z,50.35
2023-04-18T23:41:54.325Z,54.08
2023-04-18T23:42:54.327Z,55.00
2023-04-18T23:43:54.379Z,53.61
2023-04-18T23:44:54.411Z,57.15
2023-04-18T23:45:54.417Z,53.80
2023-04-18T23:46:54.504Z,53.80
2023-04-18T23:47:54.509Z,54.80
2023-04-18T23:48:54.566Z,54.17
2023-04-18T23:49:54.585Z,55.22
2023-04-18T23:50:54.622Z,54.56
2023-04-18T23:51:54.611Z,51.71
2023-04-18T23:52:54.631Z,52.89
2023-04-18T23:53:54.711Z,53.57
2023-04-18T23:54:54.723Z,54.22
2023-04-18T23:55:54.737Z,54.98
2023-04-18T23:56:54.753Z,54.26
2023-04-18T23:57:54.852Z,54.84
2023-04-18T23:58:54.858Z,56.32
2023-04-18T23:59:54.862Z,53.67
